Omena, Michigan
Current Conditions -  °F | °C
As of 12:35 AM on Sunday 23 Nov 2014 (Local Time) from KACB Reporting Station
Haze Haze  
Wind Chill: 40°   Ceiling: 2500
Heat Index: 40°   Visibility: 2.5mi
Dew Point: 38°   Wind: 0mph
Humidity: 96%   Direction: NA
Pressure: 29.82"   Gusts: NA
Location:  45.06°N, 85.59°W
Report Text: KACB 230535Z AUTO 00000KT 2 1/2SM BR SCT008 OVC025 04/04 A2982 RMK AO2 T00420036
Loading
Personal Weather Stations






























Interactive Weather Map New forecast layout! Learn more

10-Day Weather Forecast

Advertisements
Track Severe Weather on mobile